createdAt,value
2018-05-10T00:00:47.253Z,82.59
2018-05-10T00:01:47.230Z,82.68
2018-05-10T00:02:47.210Z,83.36
2018-05-10T00:03:47.242Z,83.16
2018-05-10T00:04:47.669Z,82.78
2018-05-10T00:05:47.161Z,82.87
2018-05-10T00:06:47.120Z,83.07
2018-05-10T00:07:47.171Z,83.07
2018-05-10T00:08:47.123Z,82.78
2018-05-10T00:09:47.052Z,82.49
2018-05-10T00:10:47.031Z,82.49
2018-05-10T00:11:47.012Z,82.78
2018-05-10T00:12:46.987Z,82.78
2018-05-10T00:13:47.012Z,82.78
2018-05-10T00:14:46.992Z,82.40
2018-05-10T00:15:46.916Z,82.20
2018-05-10T00:16:46.899Z,82.30
2018-05-10T00:17:46.872Z,82.20
2018-05-10T00:18:46.853Z,82.40
2018-05-10T00:19:46.893Z,82.01
2018-05-10T00:20:46.813Z,82.30
2018-05-10T00:21:46.823Z,82.30
2018-05-10T00:22:46.777Z,82.78
2018-05-10T00:23:46.739Z,82.01
2018-05-10T00:24:46.752Z,82.49
2018-05-10T00:25:46.752Z,82.59
2018-05-10T00:26:46.671Z,82.30
2018-05-10T00:27:46.651Z,82.49
2018-05-10T00:28:46.626Z,82.49
2018-05-10T00:29:46.604Z,82.40
2018-05-10T00:30:46.632Z,82.40
2018-05-10T00:31:46.560Z,82.40
2018-05-10T00:32:46.537Z,82.59
2018-05-10T00:33:46.513Z,82.20
2018-05-10T00:34:46.680Z,82.49
2018-05-10T00:35:46.614Z,82.30
2018-05-10T00:36:46.486Z,82.49
2018-05-10T00:37:46.423Z,82.49
2018-05-10T00:38:46.401Z,82.49
2018-05-10T00:39:46.381Z,82.40
2018-05-10T00:40:46.353Z,82.49
2018-05-10T00:41:46.376Z,82.78
2018-05-10T00:42:46.311Z,82.59
2018-05-10T00:43:46.281Z,82.68
2018-05-10T00:44:46.270Z,82.97
2018-05-10T00:45:46.285Z,82.84
2018-05-10T00:46:46.216Z,82.84
2018-05-10T00:47:46.241Z,83.12
2018-05-10T00:48:46.211Z,82.97
2018-05-10T00:49:46.150Z,82.93
2018-05-10T00:50:47.123Z,83.12
2018-05-10T00:51:46.107Z,82.84
2018-05-10T00:52:46.083Z,82.84
2018-05-10T00:53:46.101Z,83.60
2018-05-10T00:54:46.039Z,83.51
2018-05-10T00:55:46.016Z,83.41
2018-05-10T00:56:45.993Z,83.22
2018-05-10T00:57:45.968Z,83.41
2018-05-10T00:58:45.981Z,83.41
2018-05-10T00:59:45.920Z,82.84
2018-05-10T01:00:45.899Z,82.93
2018-05-10T01:01:45.881Z,83.31
2018-05-10T01:02:45.892Z,83.12
2018-05-10T01:03:45.876Z,83.70
2018-05-10T01:04:45.900Z,83.22
2018-05-10T01:05:45.791Z,83.80
2018-05-10T01:06:45.762Z,83.89
2018-05-10T01:07:45.740Z,83.60
2018-05-10T01:08:45.720Z,83.89
2018-05-10T01:09:45.742Z,84.42
2018-05-10T01:10:45.734Z,83.94
2018-05-10T01:11:45.649Z,84.04
2018-05-10T01:12:45.630Z,84.33
2018-05-10T01:13:45.606Z,83.94
2018-05-10T01:14:45.576Z,83.56
2018-05-10T01:15:45.618Z,83.94
2018-05-10T01:16:45.533Z,84.23
2018-05-10T01:17:45.571Z,84.04
2018-05-10T01:18:45.499Z,84.61
2018-05-10T01:19:45.481Z,84.71
2018-05-10T01:20:45.490Z,84.52
2018-05-10T01:21:45.419Z,84.42
2018-05-10T01:22:45.458Z,84.23
2018-05-10T01:23:45.390Z,85.38
2018-05-10T01:24:45.347Z,85.10
2018-05-10T01:25:45.334Z,85.38
2018-05-10T01:26:45.358Z,84.81
2018-05-10T01:27:45.292Z,85.28
2018-05-10T01:28:45.257Z,85.67
2018-05-10T01:29:45.259Z,85.58
2018-05-10T01:30:45.210Z,86.05
2018-05-10T01:31:45.223Z,85.67
2018-05-10T01:32:45.163Z,85.96
2018-05-10T01:33:45.138Z,85.77
2018-05-10T01:34:45.122Z,85.86
2018-05-10T01:35:45.095Z,85.58
2018-05-10T01:36:45.113Z,85.67
2018-05-10T01:37:45.066Z,86.05
2018-05-10T01:38:45.025Z,86.11
2018-05-10T01:39:45.011Z,86.30
2018-05-10T01:40:44.972Z,86.30
2018-05-10T01:41:44.997Z,87.16
2018-05-10T01:42:44.974Z,87.16
2018-05-10T01:43:44.905Z,87.16
2018-05-10T01:44:44.890Z,87.55
2018-05-10T01:45:44.858Z,87.64
2018-05-10T01:46:44.881Z,87.55
2018-05-10T01:47:44.915Z,87.55
2018-05-10T01:48:44.787Z,87.84
2018-05-10T01:49:44.775Z,87.74
2018-05-10T01:50:44.739Z,87.93
2018-05-10T01:51:44.732Z,87.93
2018-05-10T01:52:44.744Z,88.12
2018-05-10T01:53:44.688Z,88.02
2018-05-10T01:54:44.700Z,87.64
2018-05-10T01:55:44.623Z,87.16
2018-05-10T01:56:44.605Z,86.97
2018-05-10T01:57:45.543Z,87.55
2018-05-10T01:58:44.553Z,87.35
2018-05-10T01:59:44.529Z,87.74
2018-05-10T02:00:44.504Z,87.74
2018-05-10T02:01:44.481Z,87.45
2018-05-10T02:02:44.520Z,87.55
2018-05-10T02:03:44.451Z,87.55
2018-05-10T02:04:44.412Z,87.74
2018-05-10T02:05:44.386Z,87.45
2018-05-10T02:06:44.380Z,87.16
2018-05-10T02:07:44.388Z,87.45
2018-05-10T02:08:44.360Z,87.74
2018-05-10T02:09:44.294Z,87.55
2018-05-10T02:10:44.268Z,87.64
2018-05-10T02:11:44.248Z,88.12
2018-05-10T02:12:44.224Z,88.41
2018-05-10T02:13:44.241Z,88.02
2018-05-10T02:14:44.242Z,87.74
2018-05-10T02:15:44.152Z,87.74
2018-05-10T02:16:44.140Z,88.22
2018-05-10T02:17:44.121Z,88.31
2018-05-10T02:18:44.119Z,88.31
2018-05-10T02:19:44.101Z,88.02
2018-05-10T02:20:44.028Z,88.31
2018-05-10T02:21:44.022Z,88.51
2018-05-10T02:22:43.984Z,87.74
2018-05-10T02:23:43.961Z,88.22
2018-05-10T02:24:44.008Z,88.12
2018-05-10T02:25:43.914Z,88.31
2018-05-10T02:26:43.894Z,88.89
2018-05-10T02:27:43.867Z,88.12
2018-05-10T02:28:43.880Z,88.41
2018-05-10T02:29:44.213Z,88.22
2018-05-10T02:30:43.850Z,88.22
2018-05-10T02:31:43.777Z,88.22
2018-05-10T02:32:43.751Z,87.74
2018-05-10T02:33:43.729Z,88.31
2018-05-10T02:34:43.710Z,88.22
2018-05-10T02:35:43.728Z,88.12
2018-05-10T02:36:43.659Z,88.22
2018-05-10T02:37:43.632Z,88.31
2018-05-10T02:38:43.607Z,88.12
2018-05-10T02:39:43.591Z,88.12
2018-05-10T02:40:43.614Z,87.84
2018-05-10T02:41:43.595Z,87.74
2018-05-10T02:42:43.515Z,87.55
2018-05-10T02:43:43.491Z,88.12
2018-05-10T02:44:43.474Z,87.35
2018-05-10T02:45:44.161Z,87.45
2018-05-10T02:46:43.467Z,87.30
2018-05-10T02:47:43.399Z,87.16
2018-05-10T02:48:43.381Z,87.11
2018-05-10T02:49:43.351Z,87.40
2018-05-10T02:50:43.338Z,87.59
2018-05-10T02:51:43.426Z,87.78
2018-05-10T02:52:43.281Z,87.78
2018-05-10T02:53:43.259Z,87.30
2018-05-10T02:54:43.229Z,87.40
2018-05-10T02:55:43.219Z,87.55
2018-05-10T02:56:43.227Z,87.40
2018-05-10T02:57:43.218Z,87.01
2018-05-10T02:58:43.143Z,87.40
2018-05-10T02:59:43.166Z,87.49
2018-05-10T03:00:43.099Z,87.21
2018-05-10T03:01:43.648Z,87.59
2018-05-10T03:02:43.106Z,87.30
2018-05-10T03:03:43.023Z,87.59
2018-05-10T03:04:43.006Z,87.78
2018-05-10T03:05:43.657Z,87.49
2018-05-10T03:06:42.964Z,87.68
2018-05-10T03:07:42.977Z,87.59
2018-05-10T03:08:42.906Z,87.78
2018-05-10T03:09:42.884Z,87.98
2018-05-10T03:10:42.906Z,87.59
2018-05-10T03:11:42.841Z,87.30
2018-05-10T03:12:42.814Z,87.59
2018-05-10T03:13:42.792Z,87.88
2018-05-10T03:14:42.766Z,87.68
2018-05-10T03:15:42.790Z,87.78
2018-05-10T03:16:42.724Z,87.30
2018-05-10T03:17:42.699Z,87.40
2018-05-10T03:18:43.701Z,87.59
2018-05-10T03:19:42.645Z,87.11
2018-05-10T03:20:42.676Z,87.11
2018-05-10T03:21:43.154Z,87.40
2018-05-10T03:22:42.578Z,86.82
2018-05-10T03:23:42.554Z,87.11
2018-05-10T03:24:42.535Z,87.01
2018-05-10T03:25:42.707Z,87.11
2018-05-10T03:26:42.494Z,86.92
2018-05-10T03:27:42.463Z,87.01
2018-05-10T03:28:42.438Z,87.21
2018-05-10T03:29:43.154Z,87.01
2018-05-10T03:30:42.443Z,86.72
2018-05-10T03:31:42.374Z,86.63
2018-05-10T03:32:42.356Z,86.63
2018-05-10T03:33:42.326Z,87.11
2018-05-10T03:34:42.300Z,87.11
2018-05-10T03:35:42.343Z,87.11
2018-05-10T03:36:42.253Z,87.01
2018-05-10T03:37:43.161Z,86.82
2018-05-10T03:38:42.208Z,86.44
2018-05-10T03:39:42.198Z,86.44
2018-05-10T03:40:42.216Z,86.82
2018-05-10T03:41:42.229Z,87.01
2018-05-10T03:42:42.120Z,86.82
2018-05-10T03:43:42.658Z,86.82
2018-05-10T03:44:42.088Z,86.34
2018-05-10T03:45:42.050Z,87.21
2018-05-10T03:46:42.221Z,87.01
2018-05-10T03:47:41.999Z,87.01
2018-05-10T03:48:41.976Z,86.63
2018-05-10T03:49:41.960Z,86.63
2018-05-10T03:50:42.676Z,87.11
2018-05-10T03:51:42.009Z,87.11
2018-05-10T03:52:41.941Z,87.01
2018-05-10T03:53:41.866Z,87.11
2018-05-10T03:54:41.838Z,86.82
2018-05-10T03:55:41.816Z,87.59
2018-05-10T03:56:41.793Z,87.49
2018-05-10T03:57:42.212Z,87.49
2018-05-10T03:58:41.797Z,87.78
2018-05-10T03:59:41.729Z,87.49
2018-05-10T04:00:41.699Z,87.98
2018-05-10T04:01:41.683Z,88.07
2018-05-10T04:02:42.164Z,87.98
2018-05-10T04:03:41.672Z,88.17
2018-05-10T04:04:41.607Z,88.35
2018-05-10T04:05:42.170Z,88.45
2018-05-10T04:06:41.568Z,88.12
2018-05-10T04:07:41.538Z,88.12
2018-05-10T04:08:41.556Z,88.60
2018-05-10T04:09:41.497Z,88.51
2018-05-10T04:10:42.165Z,88.60
2018-05-10T04:11:41.497Z,88.51
2018-05-10T04:12:41.424Z,88.70
2018-05-10T04:13:42.166Z,88.79
2018-05-10T04:14:41.372Z,88.70
2018-05-10T04:15:41.369Z,88.89
2018-05-10T04:16:41.385Z,89.08
2018-05-10T04:17:41.312Z,88.70
2018-05-10T04:18:41.312Z,89.08
2018-05-10T04:19:41.262Z,88.98
2018-05-10T04:20:41.238Z,88.70
2018-05-10T04:21:41.268Z,89.56
2018-05-10T04:22:41.190Z,89.47
2018-05-10T04:23:41.673Z,88.98
2018-05-10T04:24:41.160Z,89.37
2018-05-10T04:25:41.120Z,89.47
2018-05-10T04:26:41.220Z,89.94
2018-05-10T04:27:41.091Z,90.04
2018-05-10T04:28:41.049Z,90.23
2018-05-10T04:29:41.028Z,89.56
2018-05-10T04:30:41.031Z,89.56
2018-05-10T04:31:41.020Z,89.65
2018-05-10T04:32:41.236Z,90.23
2018-05-10T04:33:40.938Z,90.04
2018-05-10T04:34:40.916Z,89.75
2018-05-10T04:35:41.744Z,90.61
2018-05-10T04:36:40.858Z,90.52
2018-05-10T04:37:40.884Z,90.04
2018-05-10T04:38:40.813Z,90.81
2018-05-10T04:39:41.670Z,90.71
2018-05-10T04:40:40.830Z,90.71
2018-05-10T04:41:40.743Z,90.52
2018-05-10T04:42:40.762Z,90.61
2018-05-10T04:43:40.747Z,90.81
2018-05-10T04:44:41.176Z,90.33
2018-05-10T04:45:40.656Z,90.42
2018-05-10T04:46:40.628Z,90.42
2018-05-10T04:47:40.610Z,90.04
2018-05-10T04:48:40.626Z,90.14
2018-05-10T04:49:40.576Z,89.61
2018-05-10T04:50:40.539Z,89.41
2018-05-10T04:51:40.510Z,89.41
2018-05-10T04:52:40.486Z,89.32
2018-05-10T04:53:40.519Z,89.32
2018-05-10T04:54:40.524Z,89.12
2018-05-10T04:55:40.420Z,89.51
2018-05-10T04:56:40.392Z,89.41
2018-05-10T04:57:40.381Z,89.32
2018-05-10T04:58:40.394Z,89.12
2018-05-10T04:59:40.388Z,88.74
2018-05-10T05:00:40.308Z,88.74
2018-05-10T05:01:40.281Z,88.93
2018-05-10T05:02:40.255Z,88.45
2018-05-10T05:03:40.233Z,88.40
2018-05-10T05:04:40.290Z,87.73
2018-05-10T05:05:40.229Z,87.82
2018-05-10T05:06:40.174Z,87.35
2018-05-10T05:07:40.145Z,87.73
2018-05-10T05:08:40.163Z,86.77
2018-05-10T05:09:40.101Z,86.62
2018-05-10T05:10:40.118Z,86.24
2018-05-10T05:11:40.064Z,86.14
2018-05-10T05:12:40.024Z,85.47
2018-05-10T05:13:40.001Z,85.28
2018-05-10T05:14:40.036Z,84.31
2018-05-10T05:15:39.962Z,84.89
2018-05-10T05:16:39.944Z,84.07
2018-05-10T05:17:39.916Z,84.07
2018-05-10T05:18:39.895Z,83.49
2018-05-10T05:19:39.924Z,83.49
2018-05-10T05:20:39.894Z,83.20
2018-05-10T05:21:39.825Z,83.20
2018-05-10T05:22:39.811Z,83.59
2018-05-10T05:23:39.795Z,83.78
2018-05-10T05:24:39.763Z,83.40
2018-05-10T05:25:40.240Z,83.20
2018-05-10T05:26:39.720Z,82.92
2018-05-10T05:27:39.700Z,83.20
2018-05-10T05:28:39.681Z,83.01
2018-05-10T05:29:39.652Z,83.11
2018-05-10T05:30:39.686Z,82.09
2018-05-10T05:31:39.650Z,82.82
2018-05-10T05:32:39.603Z,82.57
2018-05-10T05:33:39.571Z,82.38
2018-05-10T05:34:39.556Z,82.38
2018-05-10T05:35:39.645Z,82.48
2018-05-10T05:36:39.552Z,81.42
2018-05-10T05:37:39.488Z,81.81
2018-05-10T05:38:39.469Z,80.84
2018-05-10T05:39:39.440Z,81.04
2018-05-10T05:40:39.418Z,81.04
2018-05-10T05:41:39.468Z,81.17
2018-05-10T05:42:39.375Z,81.13
2018-05-10T05:43:39.359Z,81.07
2018-05-10T05:44:39.337Z,80.88
2018-05-10T05:45:39.328Z,80.98
2018-05-10T05:46:39.336Z,80.88
2018-05-10T05:47:39.315Z,80.30
2018-05-10T05:48:39.300Z,80.30
2018-05-10T05:49:39.226Z,80.02
2018-05-10T05:50:39.208Z,80.21
2018-05-10T05:51:39.191Z,80.54
2018-05-10T05:52:39.223Z,80.25
2018-05-10T05:53:39.193Z,79.77
2018-05-10T05:54:39.124Z,79.86
2018-05-10T05:55:39.103Z,79.28
2018-05-10T05:56:39.121Z,79.19
2018-05-10T05:57:39.057Z,78.13
2018-05-10T05:58:39.086Z,78.17
2018-05-10T05:59:39.020Z,78.08
2018-05-10T06:00:38.998Z,77.59
2018-05-10T06:01:38.976Z,77.78
2018-05-10T06:02:38.959Z,77.01
2018-05-10T06:03:38.987Z,76.73
2018-05-10T06:04:39.721Z,77.01
2018-05-10T06:05:38.943Z,77.11
2018-05-10T06:06:38.880Z,76.44
2018-05-10T06:07:38.860Z,76.63
2018-05-10T06:08:38.887Z,76.34
2018-05-10T06:09:38.825Z,76.63
2018-05-10T06:10:38.795Z,76.53
2018-05-10T06:11:38.786Z,76.34
2018-05-10T06:12:38.757Z,76.15
2018-05-10T06:13:38.778Z,75.86
2018-05-10T06:14:38.724Z,75.61
2018-05-10T06:15:38.702Z,75.71
2018-05-10T06:16:38.681Z,75.61
2018-05-10T06:17:38.652Z,75.51
2018-05-10T06:18:38.702Z,75.51
2018-05-10T06:19:38.609Z,75.51
2018-05-10T06:20:38.598Z,75.13
2018-05-10T06:21:38.572Z,75.23
2018-05-10T06:22:38.552Z,75.32
2018-05-10T06:23:38.609Z,75.23
2018-05-10T06:24:38.511Z,75.90
2018-05-10T06:25:38.488Z,75.71
2018-05-10T06:26:38.486Z,75.61
2018-05-10T06:27:38.539Z,75.80
2018-05-10T06:28:38.493Z,76.28
2018-05-10T06:29:38.409Z,76.28
2018-05-10T06:30:38.400Z,75.61
2018-05-10T06:31:38.370Z,75.74
2018-05-10T06:32:38.370Z,75.65
2018-05-10T06:33:38.387Z,75.26
2018-05-10T06:34:38.311Z,74.97
2018-05-10T06:35:38.293Z,74.68
2018-05-10T06:36:38.271Z,75.07
2018-05-10T06:37:38.253Z,75.26
2018-05-10T06:38:38.273Z,75.26
2018-05-10T06:39:38.265Z,75.16
2018-05-10T06:40:38.192Z,75.07
2018-05-10T06:41:38.180Z,74.49
2018-05-10T06:42:38.150Z,74.68
2018-05-10T06:43:38.139Z,74.01
2018-05-10T06:44:38.167Z,74.78
2018-05-10T06:45:38.091Z,74.58
2018-05-10T06:46:38.072Z,74.97
2018-05-10T06:47:38.057Z,75.07
2018-05-10T06:48:38.033Z,75.07
2018-05-10T06:49:38.060Z,74.93
2018-05-10T06:50:38.044Z,75.16
2018-05-10T06:51:38.017Z,75.84
2018-05-10T06:52:37.950Z,75.55
2018-05-10T06:53:37.931Z,75.42
2018-05-10T06:54:37.968Z,75.61
2018-05-10T06:55:37.951Z,75.55
2018-05-10T06:56:37.878Z,75.65
2018-05-10T06:57:37.853Z,75.55
2018-05-10T06:58:37.842Z,75.65
2018-05-10T06:59:37.812Z,75.55
2018-05-10T07:00:37.839Z,74.97
2018-05-10T07:01:38.707Z,74.78
2018-05-10T07:02:37.800Z,74.88
2018-05-10T07:03:37.734Z,74.97
2018-05-10T07:04:37.713Z,74.58
2018-05-10T07:05:37.745Z,74.58
2018-05-10T07:06:38.223Z,74.58
2018-05-10T07:07:37.663Z,75.16
2018-05-10T07:08:37.644Z,74.10
2018-05-10T07:09:37.806Z,74.88
2018-05-10T07:10:37.592Z,74.68
2018-05-10T07:11:37.768Z,74.43
2018-05-10T07:12:37.597Z,73.72
2018-05-10T07:13:37.535Z,73.66
2018-05-10T07:14:37.515Z,73.57
2018-05-10T07:15:37.496Z,73.27
2018-05-10T07:16:37.475Z,73.27
2018-05-10T07:17:37.510Z,73.08
2018-05-10T07:18:37.432Z,73.27
2018-05-10T07:19:37.457Z,73.08
2018-05-10T07:20:37.394Z,72.50
2018-05-10T07:21:37.378Z,73.18
2018-05-10T07:22:37.407Z,73.37
2018-05-10T07:23:38.217Z,72.73
2018-05-10T07:24:37.376Z,72.25
2018-05-10T07:25:37.304Z,72.15
2018-05-10T07:26:37.279Z,72.06
2018-05-10T07:27:38.214Z,72.06
2018-05-10T07:28:37.248Z,71.90
2018-05-10T07:29:37.265Z,71.61
2018-05-10T07:30:37.206Z,71.90
2018-05-10T07:31:37.185Z,71.03
2018-05-10T07:32:37.721Z,71.12
2018-05-10T07:33:37.192Z,70.48
2018-05-10T07:34:37.123Z,70.68
2018-05-10T07:35:37.101Z,70.48
2018-05-10T07:36:37.094Z,70.10
2018-05-10T07:37:37.287Z,70.04
2018-05-10T07:38:37.046Z,70.04
2018-05-10T07:39:37.026Z,69.56
2018-05-10T07:40:37.015Z,69.17
2018-05-10T07:41:37.724Z,69.26
2018-05-10T07:42:37.024Z,68.78
2018-05-10T07:43:36.952Z,69.07
2018-05-10T07:44:36.936Z,68.88
2018-05-10T07:45:36.913Z,68.88
2018-05-10T07:46:37.722Z,68.20
2018-05-10T07:47:36.929Z,68.49
2018-05-10T07:48:36.858Z,68.49
2018-05-10T07:49:36.840Z,68.40
2018-05-10T07:50:36.826Z,68.49
2018-05-10T07:51:37.720Z,69.17
2018-05-10T07:52:36.830Z,69.07
2018-05-10T07:53:36.813Z,68.49
2018-05-10T07:54:36.750Z,68.98
2018-05-10T07:55:36.733Z,68.10
2018-05-10T07:56:36.711Z,68.49
2018-05-10T07:57:36.743Z,68.75
2018-05-10T07:58:36.720Z,69.32
2018-05-10T07:59:36.654Z,69.52
2018-05-10T08:00:36.633Z,69.52
2018-05-10T08:01:36.632Z,69.81
2018-05-10T08:02:36.794Z,70.00
2018-05-10T08:03:36.595Z,70.39
2018-05-10T08:04:36.560Z,69.71
2018-05-10T08:05:36.545Z,69.90
2018-05-10T08:06:36.528Z,70.20
2018-05-10T08:07:36.572Z,69.81
2018-05-10T08:08:36.487Z,70.48
2018-05-10T08:09:36.477Z,70.39
2018-05-10T08:10:36.447Z,70.97
2018-05-10T08:11:36.432Z,71.16
2018-05-10T08:12:36.777Z,71.36
2018-05-10T08:13:36.398Z,71.42
2018-05-10T08:14:36.422Z,70.45
2018-05-10T08:15:36.353Z,70.94
2018-05-10T08:16:36.332Z,70.84
2018-05-10T08:17:37.244Z,70.36
2018-05-10T08:18:36.293Z,70.64
2018-05-10T08:19:36.333Z,70.74
2018-05-10T08:20:37.134Z,70.54
2018-05-10T08:21:36.361Z,70.54
2018-05-10T08:22:36.216Z,70.48
2018-05-10T08:23:36.734Z,70.78
2018-05-10T08:24:36.182Z,70.74
2018-05-10T08:25:36.202Z,71.06
2018-05-10T08:26:36.139Z,71.36
2018-05-10T08:27:36.122Z,71.36
2018-05-10T08:28:36.111Z,71.06
2018-05-10T08:29:36.080Z,71.22
2018-05-10T08:30:36.108Z,71.26
2018-05-10T08:31:36.042Z,71.36
2018-05-10T08:32:36.030Z,71.36
2018-05-10T08:33:36.017Z,71.74
2018-05-10T08:34:35.985Z,71.64
2018-05-10T08:35:36.012Z,71.45
2018-05-10T08:36:36.315Z,71.94
2018-05-10T08:37:35.929Z,71.55
2018-05-10T08:38:35.911Z,71.26
2018-05-10T08:39:35.896Z,70.78
2018-05-10T08:40:35.868Z,70.78
2018-05-10T08:41:36.302Z,70.97
2018-05-10T08:42:35.835Z,70.97
2018-05-10T08:43:35.814Z,70.20
2018-05-10T08:44:35.793Z,70.00
2018-05-10T08:45:35.776Z,70.48
2018-05-10T08:46:35.826Z,70.48
2018-05-10T08:47:35.743Z,70.87
2018-05-10T08:48:36.234Z,70.39
2018-05-10T08:49:35.695Z,69.81
2018-05-10T08:50:35.675Z,69.94
2018-05-10T08:51:35.875Z,69.62
2018-05-10T08:52:35.637Z,69.90
2018-05-10T08:53:35.621Z,70.32
2018-05-10T08:54:36.240Z,68.65
2018-05-10T08:55:35.629Z,69.84
2018-05-10T08:56:35.565Z,69.56
2018-05-10T08:57:35.544Z,68.68
2018-05-10T08:58:35.523Z,68.40
2018-05-10T08:59:36.257Z,68.10
2018-05-10T09:00:35.530Z,67.91
2018-05-10T09:01:35.483Z,67.82
2018-05-10T09:02:35.465Z,67.14
2018-05-10T09:03:35.431Z,67.91
2018-05-10T09:04:35.413Z,67.82
2018-05-10T09:05:35.432Z,67.91
2018-05-10T09:06:35.372Z,67.62
2018-05-10T09:07:35.410Z,67.91
2018-05-10T09:08:35.337Z,67.82
2018-05-10T09:09:35.312Z,67.14
2018-05-10T09:10:35.294Z,64.92
2018-05-10T09:11:35.294Z,65.40
2018-05-10T09:12:35.307Z,65.40
2018-05-10T09:13:35.235Z,66.08
2018-05-10T09:14:35.219Z,65.88
2018-05-10T09:15:35.253Z,65.72
2018-05-10T09:16:35.178Z,64.92
2018-05-10T09:17:35.216Z,65.63
2018-05-10T09:18:35.149Z,65.63
2018-05-10T09:19:35.125Z,65.05
2018-05-10T09:20:35.108Z,65.05
2018-05-10T09:21:35.087Z,64.95
2018-05-10T09:22:35.114Z,65.14
2018-05-10T09:23:35.050Z,65.63
2018-05-10T09:24:35.031Z,64.85
2018-05-10T09:25:35.010Z,66.01
2018-05-10T09:26:34.999Z,64.85
2018-05-10T09:27:35.017Z,63.89
2018-05-10T09:28:34.962Z,64.18
2018-05-10T09:29:35.749Z,63.14
2018-05-10T09:30:34.923Z,64.69
2018-05-10T09:31:35.006Z,64.31
2018-05-10T09:32:34.941Z,64.40
2018-05-10T09:33:34.865Z,64.14
2018-05-10T09:34:34.845Z,63.46
2018-05-10T09:35:34.825Z,63.85
2018-05-10T09:36:34.805Z,64.04
2018-05-10T09:37:34.839Z,63.66
2018-05-10T09:38:34.813Z,62.98
2018-05-10T09:39:34.775Z,62.79
2018-05-10T09:40:34.728Z,63.08
2018-05-10T09:41:34.710Z,62.01
2018-05-10T09:42:34.694Z,62.59
2018-05-10T09:43:34.726Z,62.30
2018-05-10T09:44:34.656Z,62.01
2018-05-10T09:45:34.694Z,62.88
2018-05-10T09:46:35.252Z,62.88
2018-05-10T09:47:34.601Z,63.46
2018-05-10T09:48:34.583Z,63.66
2018-05-10T09:49:34.565Z,63.66
2018-05-10T09:50:34.592Z,61.92
2018-05-10T09:51:34.531Z,61.95
2018-05-10T09:52:34.523Z,62.34
2018-05-10T09:53:34.493Z,62.43
2018-05-10T09:54:34.475Z,60.98
2018-05-10T09:55:34.502Z,59.14
2018-05-10T09:56:34.483Z,59.23
2018-05-10T09:57:34.420Z,58.95
2018-05-10T09:58:34.403Z,59.53
2018-05-10T09:59:34.392Z,59.82
2018-05-10T10:00:34.393Z,59.82
2018-05-10T10:01:34.406Z,59.63
2018-05-10T10:02:34.327Z,60.50
2018-05-10T10:03:34.310Z,60.40
2018-05-10T10:04:34.307Z,59.82
2018-05-10T10:05:34.279Z,59.33
2018-05-10T10:06:34.306Z,58.65
2018-05-10T10:07:34.295Z,58.69
2018-05-10T10:08:34.221Z,58.98
2018-05-10T10:09:34.207Z,58.59
2018-05-10T10:10:34.184Z,58.11
2018-05-10T10:11:34.245Z,58.11
2018-05-10T10:12:34.204Z,58.98
2018-05-10T10:13:34.135Z,58.20
2018-05-10T10:14:34.112Z,57.81
2018-05-10T10:15:34.094Z,58.88
2018-05-10T10:16:34.072Z,59.07
2018-05-10T10:17:35.252Z,59.84
2018-05-10T10:18:34.040Z,58.78
2018-05-10T10:19:34.022Z,59.17
2018-05-10T10:20:34.003Z,58.98
2018-05-10T10:21:33.980Z,58.69
2018-05-10T10:22:34.027Z,58.72
2018-05-10T10:23:33.957Z,58.98
2018-05-10T10:24:33.941Z,58.42
2018-05-10T10:25:33.919Z,57.65
2018-05-10T10:26:34.761Z,58.52
2018-05-10T10:27:33.931Z,57.75
2018-05-10T10:28:33.858Z,57.26
2018-05-10T10:29:33.883Z,57.26
2018-05-10T10:30:33.822Z,56.97
2018-05-10T10:31:33.814Z,58.14
2018-05-10T10:32:33.789Z,58.33
2018-05-10T10:33:33.822Z,57.75
2018-05-10T10:34:33.757Z,57.45
2018-05-10T10:35:33.738Z,57.55
2018-05-10T10:36:33.714Z,56.41
2018-05-10T10:37:33.704Z,56.49
2018-05-10T10:38:33.728Z,57.58
2018-05-10T10:39:33.668Z,57.00
2018-05-10T10:40:33.651Z,57.36
2018-05-10T10:41:33.626Z,57.19
2018-05-10T10:42:33.608Z,57.09
2018-05-10T10:43:33.644Z,55.93
2018-05-10T10:44:33.577Z,56.23
2018-05-10T10:45:33.570Z,56.41
2018-05-10T10:46:33.564Z,55.74
2018-05-10T10:47:33.521Z,56.71
2018-05-10T10:48:33.549Z,56.51
2018-05-10T10:49:33.486Z,56.23
2018-05-10T10:50:33.479Z,56.05
2018-05-10T10:51:33.491Z,55.87
2018-05-10T10:52:33.451Z,55.35
2018-05-10T10:53:33.426Z,55.38
2018-05-10T10:54:33.403Z,55.77
2018-05-10T10:55:33.429Z,56.45
2018-05-10T10:56:33.417Z,54.80
2018-05-10T10:57:33.348Z,54.50
2018-05-10T10:58:33.335Z,54.90
2018-05-10T10:59:33.312Z,55.47
2018-05-10T11:00:33.298Z,55.87
2018-05-10T11:01:33.340Z,55.47
2018-05-10T11:02:33.308Z,55.08
2018-05-10T11:03:33.251Z,55.11
2018-05-10T11:04:33.225Z,54.72
2018-05-10T11:05:33.208Z,53.95
2018-05-10T11:06:33.233Z,54.34
2018-05-10T11:07:33.778Z,53.66
2018-05-10T11:08:33.203Z,53.95
2018-05-10T11:09:33.146Z,52.88
2018-05-10T11:10:33.122Z,53.17
2018-05-10T11:11:33.163Z,53.39
2018-05-10T11:12:33.090Z,53.30
2018-05-10T11:13:33.068Z,52.81
2018-05-10T11:14:33.058Z,52.42
2018-05-10T11:15:33.080Z,51.75
2018-05-10T11:16:33.026Z,52.23
2018-05-10T11:17:33.025Z,51.55
2018-05-10T11:18:33.031Z,51.75
2018-05-10T11:19:32.978Z,52.74
2018-05-10T11:20:32.962Z,52.35
2018-05-10T11:21:32.954Z,52.35
2018-05-10T11:22:32.976Z,50.41
2018-05-10T11:23:32.910Z,50.21
2018-05-10T11:24:32.892Z,50.89
2018-05-10T11:25:32.882Z,50.31
2018-05-10T11:26:32.858Z,50.21
2018-05-10T11:27:32.885Z,50.89
2018-05-10T11:28:32.871Z,51.57
2018-05-10T11:29:32.818Z,51.48
2018-05-10T11:30:32.792Z,50.82
2018-05-10T11:31:32.783Z,50.04
2018-05-10T11:32:32.759Z,49.85
2018-05-10T11:33:32.795Z,48.78
2018-05-10T11:34:32.726Z,48.97
2018-05-10T11:35:32.713Z,49.76
2018-05-10T11:36:32.701Z,49.56
2018-05-10T11:37:33.295Z,49.68
2018-05-10T11:38:32.714Z,49.07
2018-05-10T11:39:32.696Z,50.36
2018-05-10T11:40:32.681Z,50.75
2018-05-10T11:41:32.616Z,50.16
2018-05-10T11:42:32.603Z,49.87
2018-05-10T11:43:32.856Z,49.51
2018-05-10T11:44:32.581Z,50.19
2018-05-10T11:45:32.598Z,49.71
2018-05-10T11:46:32.537Z,49.41
2018-05-10T11:47:32.526Z,47.66
2018-05-10T11:48:32.551Z,48.44
2018-05-10T11:49:32.862Z,48.54
2018-05-10T11:50:32.475Z,48.15
2018-05-10T11:51:32.462Z,47.86
2018-05-10T11:52:32.473Z,47.27
2018-05-10T11:53:32.430Z,47.66
2018-05-10T11:54:32.476Z,48.46
2018-05-10T11:55:32.460Z,47.88
2018-05-10T11:56:32.388Z,48.07
2018-05-10T11:57:32.370Z,48.66
2018-05-10T11:58:32.357Z,48.17
2018-05-10T11:59:32.338Z,48.66
2018-05-10T12:00:32.377Z,48.29
2018-05-10T12:01:32.319Z,47.90
2018-05-10T12:02:32.369Z,47.22
2018-05-10T12:03:32.279Z,46.73
2018-05-10T12:04:32.261Z,46.93
2018-05-10T12:05:32.348Z,47.71
2018-05-10T12:06:32.281Z,46.93
2018-05-10T12:07:32.220Z,47.71
2018-05-10T12:08:32.204Z,46.86
2018-05-10T12:09:32.191Z,46.54
2018-05-10T12:10:32.181Z,46.15
2018-05-10T12:11:32.197Z,46.54
2018-05-10T12:12:32.141Z,46.54
2018-05-10T12:13:32.801Z,45.57
2018-05-10T12:14:32.115Z,46.05
2018-05-10T12:15:32.100Z,46.05
2018-05-10T12:16:32.131Z,45.98
2018-05-10T12:17:32.078Z,46.27
2018-05-10T12:18:32.365Z,45.20
2018-05-10T12:19:32.044Z,45.59
2018-05-10T12:20:32.101Z,45.90
2018-05-10T12:21:32.014Z,46.39
2018-05-10T12:22:32.045Z,46.59
2018-05-10T12:23:32.029Z,46.10
2018-05-10T12:24:31.972Z,45.90
2018-05-10T12:25:31.966Z,45.90
2018-05-10T12:26:31.945Z,45.03
2018-05-10T12:27:31.967Z,45.51
2018-05-10T12:28:32.377Z,45.51
2018-05-10T12:29:31.897Z,45.12
2018-05-10T12:30:31.974Z,45.03
2018-05-10T12:31:31.872Z,44.24
2018-05-10T12:32:31.857Z,45.00
2018-05-10T12:33:32.365Z,44.81
2018-05-10T12:34:31.827Z,45.20
2018-05-10T12:35:31.819Z,45.68
2018-05-10T12:36:31.796Z,45.00
2018-05-10T12:37:31.865Z,45.49
2018-05-10T12:38:31.874Z,45.29
2018-05-10T12:39:31.757Z,45.49
2018-05-10T12:40:31.742Z,46.00
2018-05-10T12:41:31.776Z,46.00
2018-05-10T12:42:31.715Z,46.17
2018-05-10T12:43:31.870Z,45.51
2018-05-10T12:44:31.693Z,45.42
2018-05-10T12:45:31.668Z,44.64
2018-05-10T12:46:31.658Z,45.10
2018-05-10T12:47:31.644Z,45.98
2018-05-10T12:48:31.888Z,46.27
2018-05-10T12:49:31.616Z,45.98
2018-05-10T12:50:31.608Z,46.17
2018-05-10T12:51:31.591Z,45.88
2018-05-10T12:52:31.579Z,45.86